createdAt,value
2018-01-19T00:00:14.840Z,2.30
2018-01-19T00:01:19.489Z,2.25
2018-01-19T00:02:24.138Z,2.24
2018-01-19T00:03:28.769Z,2.28
2018-01-19T00:04:33.485Z,2.13
2018-01-19T00:05:38.605Z,2.08
2018-01-19T00:06:43.604Z,2.04
2018-01-19T00:07:48.231Z,2.09
2018-01-19T00:08:52.845Z,2.10
2018-01-19T00:09:57.845Z,1.97
2018-01-19T00:11:02.679Z,1.97
2018-01-19T00:12:07.767Z,1.96
2018-01-19T00:13:12.416Z,1.98
2018-01-19T00:14:17.008Z,1.92
2018-01-19T00:15:21.725Z,1.90
2018-01-19T00:16:26.324Z,1.90
2018-01-19T00:17:30.957Z,1.77
2018-01-19T00:18:35.936Z,1.85
2018-01-19T00:19:40.593Z,1.71
2018-01-19T00:20:45.172Z,1.70
2018-01-19T00:21:49.905Z,1.74
2018-01-19T00:22:55.257Z,1.71
2018-01-19T00:23:59.878Z,1.62
2018-01-19T00:25:04.782Z,1.63
2018-01-19T00:26:09.407Z,1.68
2018-01-19T00:27:14.068Z,1.67
2018-01-19T00:28:18.639Z,1.57
2018-01-19T00:29:23.338Z,1.54
2018-01-19T00:30:27.948Z,1.48
2018-01-19T00:31:32.837Z,1.42
2018-01-19T00:32:37.435Z,1.40
2018-01-19T00:33:42.039Z,1.32
2018-01-19T00:34:46.636Z,1.32
2018-01-19T00:35:51.281Z,1.27
2018-01-19T00:36:55.946Z,1.29
2018-01-19T00:38:00.825Z,1.28
2018-01-19T00:39:05.504Z,1.18
2018-01-19T00:40:10.182Z,1.17
2018-01-19T00:41:14.803Z,1.25
2018-01-19T00:42:19.464Z,1.23
2018-01-19T00:43:24.070Z,1.14
2018-01-19T00:44:28.998Z,1.18
2018-01-19T00:45:33.500Z,1.20
2018-01-19T00:46:38.055Z,1.14
2018-01-19T00:47:42.596Z,1.12
2018-01-19T00:48:47.118Z,1.10
2018-01-19T00:49:51.780Z,1.11
2018-01-19T00:50:56.685Z,1.08
2018-01-19T00:52:01.359Z,1.09
2018-01-19T00:53:05.960Z,1.10
2018-01-19T00:54:10.562Z,1.13
2018-01-19T00:55:15.192Z,1.15
2018-01-19T00:56:19.780Z,1.16
2018-01-19T00:57:24.762Z,1.14
2018-01-19T00:58:29.481Z,1.17
2018-01-19T00:59:34.101Z,1.19
2018-01-19T01:00:38.752Z,1.21
2018-01-19T01:01:43.362Z,1.24
2018-01-19T01:02:47.996Z,1.34
2018-01-19T01:03:52.926Z,1.35
2018-01-19T01:04:57.630Z,1.27
2018-01-19T01:06:02.412Z,1.21
2018-01-19T01:07:07.048Z,1.18
2018-01-19T01:08:11.699Z,1.21
2018-01-19T01:09:16.336Z,1.18
2018-01-19T01:10:21.472Z,1.22
2018-01-19T01:11:26.120Z,1.13
2018-01-19T01:12:30.683Z,1.08
2018-01-19T01:13:35.274Z,1.08
2018-01-19T01:14:40.103Z,1.16
2018-01-19T01:15:44.668Z,1.22
2018-01-19T01:16:49.433Z,1.18
2018-01-19T01:17:53.899Z,1.18
2018-01-19T01:18:58.488Z,1.20
2018-01-19T01:20:03.077Z,1.17
2018-01-19T01:21:07.777Z,1.13
2018-01-19T01:22:12.590Z,1.15
2018-01-19T01:23:17.580Z,1.10
2018-01-19T01:24:22.290Z,1.13
2018-01-19T01:25:27.006Z,1.09
2018-01-19T01:26:31.728Z,1.14
2018-01-19T01:27:36.448Z,1.11
2018-01-19T01:28:41.068Z,1.10
2018-01-19T01:29:45.966Z,1.13
2018-01-19T01:30:50.656Z,1.11
2018-01-19T01:31:55.274Z,1.11
2018-01-19T01:32:59.968Z,1.08
2018-01-19T01:34:04.720Z,1.15
2018-01-19T01:35:09.457Z,1.12
2018-01-19T01:36:14.397Z,1.12
2018-01-19T01:37:19.238Z,1.04
2018-01-19T01:38:24.293Z,0.93
2018-01-19T01:39:28.904Z,0.95
2018-01-19T01:40:33.532Z,0.97
2018-01-19T01:41:40.241Z,0.96
2018-01-19T01:42:45.356Z,0.91
2018-01-19T01:43:50.008Z,0.88
2018-01-19T01:44:54.735Z,0.88
2018-01-19T01:45:59.217Z,0.78
2018-01-19T01:47:03.681Z,0.69
2018-01-19T01:48:08.269Z,0.73
2018-01-19T01:49:12.916Z,0.75
2018-01-19T01:50:18.905Z,0.77
2018-01-19T01:51:23.553Z,0.79
2018-01-19T01:52:28.155Z,0.74
2018-01-19T01:53:32.827Z,0.74
2018-01-19T01:54:37.877Z,0.74
2018-01-19T01:55:42.472Z,0.77
2018-01-19T01:56:47.007Z,0.84
2018-01-19T01:57:51.742Z,0.89
2018-01-19T01:58:56.368Z,0.92
2018-01-19T02:00:01.027Z,0.93
2018-01-19T02:49:55.853Z,0.56
2018-01-19T02:51:00.565Z,0.61
2018-01-19T02:52:05.446Z,0.66
2018-01-19T02:53:10.311Z,0.62
2018-01-19T02:54:15.082Z,0.59
2018-01-19T02:55:20.269Z,0.55
2018-01-19T02:56:25.052Z,0.58
2018-01-19T02:57:29.746Z,0.69
2018-01-19T02:58:34.486Z,0.66
2018-01-19T02:59:39.188Z,0.66
2018-01-19T03:00:43.965Z,0.61
2018-01-19T03:01:49.008Z,0.64
2018-01-19T03:02:53.690Z,0.60
2018-01-19T03:03:58.718Z,0.61
2018-01-19T03:05:03.553Z,0.67
2018-01-19T03:06:08.264Z,0.75
2018-01-19T03:07:13.016Z,0.71
2018-01-19T03:08:18.523Z,0.75
2018-01-19T03:09:23.966Z,0.82
2018-01-19T03:10:30.738Z,0.82
2018-01-19T03:11:35.764Z,0.75
2018-01-19T03:12:40.484Z,0.78
2018-01-19T03:13:45.336Z,0.79
2018-01-19T03:14:50.656Z,0.77
2018-01-19T03:15:55.394Z,0.84
2018-01-19T03:17:00.375Z,0.88
2018-01-19T03:18:05.088Z,0.87
2018-01-19T03:19:09.828Z,0.92
2018-01-19T03:20:14.544Z,0.89
2018-01-19T03:21:19.724Z,0.89
2018-01-19T03:22:24.432Z,0.86
2018-01-19T03:23:29.197Z,0.94
2018-01-19T03:24:33.873Z,0.96
2018-01-19T03:25:38.651Z,0.93
2018-01-19T03:26:43.283Z,0.89
2018-01-19T03:27:48.499Z,0.84
2018-01-19T03:28:53.348Z,0.87
2018-01-19T03:29:58.064Z,0.80
2018-01-19T03:31:02.607Z,0.78
2018-01-19T03:32:07.169Z,0.86
2018-01-19T03:33:11.715Z,0.81
2018-01-19T03:34:16.821Z,0.80
2018-01-19T03:35:22.073Z,0.79
2018-01-19T03:36:26.775Z,0.82
2018-01-19T03:37:32.068Z,0.80
2018-01-19T03:38:36.822Z,0.81
2018-01-19T03:39:41.540Z,0.76
2018-01-19T03:40:46.735Z,0.80
2018-01-19T03:41:51.488Z,0.77
2018-01-19T03:42:56.201Z,0.77
2018-01-19T03:44:00.938Z,0.81
2018-01-19T03:45:05.665Z,0.69
2018-01-19T03:46:10.680Z,0.69
2018-01-19T03:47:15.769Z,0.65
2018-01-19T03:48:20.485Z,0.67
2018-01-19T03:49:25.215Z,0.65
2018-01-19T03:50:29.998Z,0.64
2018-01-19T03:51:34.683Z,0.72
2018-01-19T03:52:39.446Z,0.74
2018-01-19T03:53:44.487Z,0.68
2018-01-19T03:54:49.169Z,0.61
2018-01-19T03:55:53.883Z,0.62
2018-01-19T03:56:58.648Z,0.61
2018-01-19T03:58:03.536Z,0.60
2018-01-19T03:59:08.259Z,0.62
2018-01-19T04:00:13.388Z,0.70
2018-01-19T04:01:18.164Z,0.80
2018-01-19T04:02:22.874Z,0.69
2018-01-19T04:03:27.582Z,0.74
2018-01-19T04:04:32.357Z,0.82
2018-01-19T04:05:37.230Z,0.79
2018-01-19T04:06:42.315Z,0.80
2018-01-19T04:07:47.117Z,0.88
2018-01-19T04:08:51.800Z,0.97
2018-01-19T04:09:56.416Z,0.99
2018-01-19T04:11:01.026Z,1.02
2018-01-19T04:12:05.628Z,0.99
2018-01-19T04:13:10.386Z,0.98
2018-01-19T04:14:14.859Z,0.97
2018-01-19T04:15:19.407Z,1.06
2018-01-19T04:16:23.869Z,1.09
2018-01-19T04:17:28.345Z,1.03
2018-01-19T04:18:32.931Z,1.04
2018-01-19T04:19:37.848Z,1.04
2018-01-19T04:20:42.574Z,1.05
2018-01-19T04:21:47.216Z,1.02
2018-01-19T04:22:51.825Z,1.05
2018-01-19T04:23:56.441Z,0.99
2018-01-19T04:25:01.410Z,0.96
2018-01-19T04:26:06.072Z,0.98
2018-01-19T04:27:10.718Z,0.99
2018-01-19T04:28:15.352Z,0.96
2018-01-19T04:29:20.042Z,0.92
2018-01-19T04:30:24.647Z,0.87
2018-01-19T04:31:29.809Z,0.91
2018-01-19T04:32:34.438Z,0.89
2018-01-19T04:33:39.283Z,0.90
2018-01-19T04:34:44.032Z,0.93
2018-01-19T04:35:48.719Z,0.98
2018-01-19T04:36:53.816Z,1.02
2018-01-19T04:37:59.229Z,0.95
2018-01-19T04:39:04.333Z,0.92
2018-01-19T04:40:09.494Z,0.92
2018-01-19T04:41:14.516Z,0.86
2018-01-19T04:42:20.243Z,0.86
2018-01-19T04:43:25.221Z,0.88
2018-01-19T04:44:30.512Z,0.95
2018-01-19T04:45:35.194Z,0.96
2018-01-19T04:46:39.936Z,0.97
2018-01-19T04:47:44.642Z,0.94
2018-01-19T04:48:49.369Z,0.99
2018-01-19T04:49:54.079Z,1.01
2018-01-19T04:50:59.134Z,1.07
2018-01-19T04:52:03.891Z,1.01
2018-01-19T04:53:08.640Z,0.98
2018-01-19T04:54:13.186Z,1.02
2018-01-19T04:55:17.774Z,1.07
2018-01-19T04:56:22.475Z,1.08
2018-01-19T04:57:27.723Z,1.12
2018-01-19T04:58:32.419Z,1.16
2018-01-19T04:59:37.110Z,1.17
2018-01-19T05:00:43.242Z,1.28
2018-01-19T05:01:47.999Z,1.29
2018-01-19T05:02:52.890Z,1.30
2018-01-19T05:03:58.272Z,1.27
2018-01-19T05:05:02.886Z,1.24
2018-01-19T05:06:07.507Z,1.28
2018-01-19T05:07:12.172Z,1.30
2018-01-19T05:08:16.810Z,1.31
2018-01-19T05:09:21.420Z,1.27
2018-01-19T05:10:26.327Z,1.24
2018-01-19T05:11:30.956Z,1.24
2018-01-19T05:12:35.571Z,1.25
2018-01-19T05:13:40.269Z,1.23
2018-01-19T05:14:44.936Z,1.27
2018-01-19T05:15:49.567Z,1.26
2018-01-19T05:16:54.488Z,1.26
2018-01-19T05:17:59.081Z,1.35
2018-01-19T05:19:03.696Z,1.32
2018-01-19T05:20:08.336Z,1.30
2018-01-19T05:21:12.970Z,1.31
2018-01-19T05:22:17.588Z,1.27
2018-01-19T05:23:22.497Z,1.24
2018-01-19T05:24:27.149Z,1.28
2018-01-19T05:25:31.797Z,1.26
2018-01-19T05:26:36.488Z,1.29
2018-01-19T05:27:41.116Z,1.29
2018-01-19T05:28:45.806Z,1.27
2018-01-19T05:29:50.700Z,1.23
2018-01-19T05:30:55.267Z,1.26
2018-01-19T05:31:59.907Z,1.21
2018-01-19T05:33:04.563Z,1.29
2018-01-19T05:34:09.152Z,1.29
2018-01-19T05:35:13.730Z,1.25
2018-01-19T05:36:18.693Z,1.29
2018-01-19T05:37:23.322Z,1.32
2018-01-19T05:38:28.052Z,1.34
2018-01-19T05:39:32.660Z,1.30
2018-01-19T05:40:37.329Z,1.27
2018-01-19T05:41:41.984Z,1.30
2018-01-19T05:42:46.955Z,1.32
2018-01-19T05:43:52.862Z,1.32
2018-01-19T05:44:57.604Z,1.30
2018-01-19T05:46:02.262Z,1.28
2018-01-19T05:47:06.961Z,1.31
2018-01-19T05:48:11.608Z,1.35
2018-01-19T05:49:16.682Z,1.32
2018-01-19T05:50:21.300Z,1.35
2018-01-19T05:51:26.048Z,1.35
2018-01-19T05:52:30.897Z,1.31
2018-01-19T05:53:35.450Z,1.32
2018-01-19T05:54:40.079Z,1.32
2018-01-19T05:55:45.121Z,1.35
2018-01-19T05:56:49.810Z,1.34
2018-01-19T05:57:54.517Z,1.34
2018-01-19T05:58:59.288Z,1.30
2018-01-19T06:00:04.109Z,1.33
2018-01-19T06:01:08.837Z,1.32
2018-01-19T06:02:13.867Z,1.27
2018-01-19T06:03:18.555Z,1.20
2018-01-19T06:04:23.296Z,1.20
2018-01-19T06:05:28.188Z,1.22
2018-01-19T06:06:32.877Z,1.28
2018-01-19T06:07:37.704Z,1.21
2018-01-19T06:08:42.829Z,1.17
2018-01-19T06:09:47.517Z,1.17
2018-01-19T06:10:52.244Z,1.24
2018-01-19T06:11:59.077Z,1.29
2018-01-19T06:13:03.989Z,1.29
2018-01-19T06:14:08.716Z,1.27
2018-01-19T06:15:13.840Z,1.29
2018-01-19T06:16:18.619Z,1.28
2018-01-19T06:17:23.315Z,1.32
2018-01-19T06:18:28.056Z,1.35
2018-01-19T06:19:32.787Z,1.36
2018-01-19T06:20:37.493Z,1.38
2018-01-19T06:21:42.780Z,1.40
2018-01-19T06:22:47.522Z,1.42
2018-01-19T06:23:52.257Z,1.44
2018-01-19T06:24:57.979Z,1.41
2018-01-19T06:26:02.570Z,1.35
2018-01-19T06:27:07.683Z,1.35
2018-01-19T06:28:12.463Z,1.33
2018-01-19T06:29:16.979Z,1.33
2018-01-19T06:30:21.535Z,1.38
2018-01-19T06:31:26.161Z,1.40
2018-01-19T06:32:30.935Z,1.47
2018-01-19T06:33:35.700Z,1.47
2018-01-19T06:34:40.767Z,1.49
2018-01-19T06:35:45.538Z,1.47
2018-01-19T06:36:50.289Z,1.50
2018-01-19T06:37:55.121Z,1.47
2018-01-19T06:39:00.350Z,1.49
2018-01-19T06:40:05.025Z,1.49
2018-01-19T06:41:10.289Z,1.46
2018-01-19T06:42:14.909Z,1.51
2018-01-19T06:43:20.977Z,1.50
2018-01-19T06:44:25.543Z,1.54
2018-01-19T06:45:31.098Z,1.57
2018-01-19T06:46:35.716Z,1.53
2018-01-19T06:47:40.928Z,1.47
2018-01-19T06:48:45.518Z,1.44
2018-01-19T06:49:50.265Z,1.44
2018-01-19T06:50:54.912Z,1.43
2018-01-19T06:51:59.466Z,1.39
2018-01-19T06:53:03.942Z,1.36
2018-01-19T06:54:08.838Z,1.38
2018-01-19T06:55:13.401Z,1.39
2018-01-19T06:56:18.033Z,1.38
2018-01-19T06:57:22.800Z,1.41
2018-01-19T06:58:27.546Z,1.40
2018-01-19T06:59:32.469Z,1.39
2018-01-19T07:00:37.544Z,1.41
2018-01-19T07:01:42.295Z,1.39
2018-01-19T07:02:47.098Z,1.36
2018-01-19T07:03:51.809Z,1.35
2018-01-19T07:04:56.551Z,1.35
2018-01-19T07:06:01.168Z,1.29
2018-01-19T07:07:06.124Z,1.25
2018-01-19T07:08:10.810Z,1.29
2018-01-19T07:09:15.439Z,1.20
2018-01-19T07:10:20.102Z,1.17
2018-01-19T07:11:24.773Z,1.22
2018-01-19T07:12:29.773Z,1.20
2018-01-19T07:13:34.909Z,1.15
2018-01-19T07:14:39.582Z,1.04
2018-01-19T07:15:44.325Z,1.03
2018-01-19T07:16:48.946Z,1.02
2018-01-19T07:17:53.602Z,1.00
2018-01-19T07:18:58.286Z,1.01
2018-01-19T07:20:03.389Z,0.98
2018-01-19T07:21:08.065Z,0.93
2018-01-19T07:22:12.697Z,0.91
2018-01-19T07:23:17.322Z,0.91
2018-01-19T07:24:22.028Z,0.85
2018-01-19T07:25:26.756Z,0.87
2018-01-19T07:26:31.722Z,0.87
2018-01-19T07:27:36.474Z,0.79
2018-01-19T07:28:41.365Z,0.80
2018-01-19T07:29:46.109Z,0.73
2018-01-19T07:30:50.851Z,0.71
2018-01-19T07:31:55.643Z,0.71
2018-01-19T07:33:00.829Z,0.74
2018-01-19T07:34:05.646Z,0.75
2018-01-19T07:35:10.397Z,0.49
2018-01-19T07:36:15.120Z,0.58
2018-01-19T07:37:19.880Z,0.60
2018-01-19T07:38:24.608Z,0.59
2018-01-19T07:39:29.707Z,0.59
2018-01-19T07:40:34.513Z,0.37
2018-01-19T07:41:39.260Z,0.39
2018-01-19T07:42:44.138Z,0.32
2018-01-19T07:43:48.838Z,0.49
2018-01-19T07:44:53.644Z,0.59
2018-01-19T07:45:58.748Z,0.56
2018-01-19T07:47:03.564Z,0.60
2018-01-19T07:48:08.279Z,0.68
2018-01-19T07:49:12.996Z,0.66
2018-01-19T07:50:17.618Z,0.68
2018-01-19T07:51:22.346Z,0.69
2018-01-19T07:52:27.274Z,0.68
2018-01-19T07:53:32.055Z,0.70
2018-01-19T07:54:36.729Z,0.67
2018-01-19T07:55:41.506Z,0.62
2018-01-19T07:56:46.250Z,0.66
2018-01-19T07:57:51.005Z,0.63
2018-01-19T07:58:56.039Z,0.63
2018-01-19T08:00:00.775Z,0.59
2018-01-19T08:01:05.514Z,0.58
2018-01-19T08:02:10.307Z,0.58
2018-01-19T08:03:15.014Z,0.62
2018-01-19T08:04:19.810Z,0.63
2018-01-19T08:05:24.818Z,0.55
2018-01-19T08:06:29.514Z,0.56
2018-01-19T08:07:34.233Z,0.58
2018-01-19T08:08:39.078Z,0.52
2018-01-19T08:09:43.766Z,0.54
2018-01-19T08:10:48.590Z,0.62
2018-01-19T08:11:53.682Z,0.61
2018-01-19T08:12:58.403Z,0.54
2018-01-19T08:14:03.168Z,0.51
2018-01-19T08:15:07.888Z,0.62
2018-01-19T08:16:12.599Z,0.66
2018-01-19T08:17:17.348Z,0.74
2018-01-19T08:18:22.490Z,0.80
2018-01-19T08:19:27.229Z,0.84
2018-01-19T08:20:32.131Z,0.76
2018-01-19T08:21:36.833Z,0.73
2018-01-19T08:22:41.559Z,0.68
2018-01-19T08:23:46.401Z,0.76
2018-01-19T08:24:51.129Z,0.76
2018-01-19T08:25:55.852Z,0.74
2018-01-19T08:27:00.738Z,0.78
2018-01-19T08:28:05.440Z,0.69
2018-01-19T08:29:10.171Z,0.77
2018-01-19T08:30:15.163Z,0.78
2018-01-19T08:31:19.901Z,0.72
2018-01-19T08:32:24.520Z,0.70
2018-01-19T08:33:29.144Z,0.78
2018-01-19T08:34:33.765Z,0.79
2018-01-19T08:35:38.454Z,0.75
2018-01-19T08:36:43.452Z,0.74
2018-01-19T08:37:48.280Z,0.72
2018-01-19T08:38:52.932Z,0.77
2018-01-19T08:39:57.788Z,0.73
2018-01-19T08:41:02.444Z,0.76
2018-01-19T08:42:07.048Z,0.73
2018-01-19T08:43:12.061Z,0.78
2018-01-19T08:44:16.688Z,0.79
2018-01-19T08:45:21.288Z,0.82
2018-01-19T08:46:25.957Z,0.75
2018-01-19T08:47:30.663Z,0.80
2018-01-19T08:48:35.433Z,0.73
2018-01-19T08:49:40.423Z,0.83
2018-01-19T08:50:45.130Z,0.84
2018-01-19T08:51:49.863Z,0.89
2018-01-19T08:52:54.560Z,0.90
2018-01-19T08:53:59.425Z,0.89
2018-01-19T08:55:04.224Z,0.91
2018-01-19T08:56:09.536Z,0.97
2018-01-19T08:57:14.295Z,0.99
2018-01-19T08:58:19.141Z,0.99
2018-01-19T08:59:23.837Z,0.98
2018-01-19T09:00:28.658Z,1.04
2018-01-19T09:01:33.337Z,1.08
2018-01-19T09:02:38.326Z,1.08
2018-01-19T09:03:43.063Z,1.11
2018-01-19T09:04:49.257Z,1.17
2018-01-19T09:05:53.994Z,1.17
2018-01-19T09:06:58.774Z,1.15
2018-01-19T09:08:03.800Z,1.12
2018-01-19T09:09:08.526Z,1.11
2018-01-19T09:10:13.237Z,1.10
2018-01-19T09:11:18.332Z,1.13
2018-01-19T09:12:23.056Z,1.14
2018-01-19T09:13:27.766Z,1.15
2018-01-19T09:14:32.895Z,1.16
2018-01-19T09:15:37.651Z,1.22
2018-01-19T09:16:42.386Z,1.25
2018-01-19T09:17:47.128Z,1.25
2018-01-19T09:18:51.869Z,1.25
2018-01-19T09:19:56.632Z,1.30
2018-01-19T09:21:01.703Z,1.19
2018-01-19T09:22:06.429Z,1.19
2018-01-19T09:23:11.141Z,1.17
2018-01-19T09:24:15.858Z,1.23
2018-01-19T09:25:20.669Z,1.25
2018-01-19T09:26:25.385Z,1.25
2018-01-19T09:27:30.583Z,1.30
2018-01-19T09:28:35.281Z,1.21
2018-01-19T09:29:40.018Z,1.20
2018-01-19T09:30:44.770Z,1.17
2018-01-19T09:31:49.578Z,1.20
2018-01-19T09:32:54.358Z,1.22
2018-01-19T09:33:59.378Z,1.21
2018-01-19T09:35:04.099Z,1.18
2018-01-19T09:36:08.946Z,1.17
2018-01-19T09:37:13.581Z,1.22
2018-01-19T09:38:18.621Z,1.27
2018-01-19T09:39:23.417Z,1.36
2018-01-19T09:40:28.374Z,1.29
2018-01-19T09:41:33.157Z,1.32
2018-01-19T09:42:37.857Z,1.40
2018-01-19T09:43:42.718Z,1.38
2018-01-19T09:44:47.820Z,1.41
2018-01-19T09:45:52.549Z,1.37
2018-01-19T09:46:57.522Z,1.35
2018-01-19T09:48:02.278Z,1.33
2018-01-19T09:49:07.010Z,1.34
2018-01-19T09:50:11.726Z,1.28
2018-01-19T09:51:16.934Z,1.33
2018-01-19T09:52:21.747Z,1.32
2018-01-19T09:53:26.679Z,1.28
2018-01-19T09:54:31.330Z,1.32
2018-01-19T09:55:36.091Z,1.27
2018-01-19T09:56:40.825Z,1.30
2018-01-19T09:57:45.594Z,1.27
2018-01-19T09:58:50.307Z,1.31
2018-01-19T09:59:55.272Z,1.26
2018-01-19T10:01:00.166Z,1.26
2018-01-19T10:02:04.925Z,1.21
2018-01-19T10:03:09.658Z,1.23
2018-01-19T10:04:14.350Z,1.23
2018-01-19T10:05:19.208Z,1.22
2018-01-19T10:06:24.277Z,1.22
2018-01-19T10:07:29.129Z,1.21
2018-01-19T10:08:33.854Z,1.26
2018-01-19T10:09:38.584Z,1.21
2018-01-19T10:10:43.394Z,1.27
2018-01-19T10:11:48.187Z,1.27
2018-01-19T10:12:53.221Z,1.31
2018-01-19T10:13:57.969Z,1.64
2018-01-19T10:15:02.732Z,2.32
2018-01-19T10:16:07.557Z,2.60
2018-01-19T10:17:12.735Z,2.87
2018-01-19T10:18:17.497Z,3.14
2018-01-19T10:19:22.745Z,2.88
2018-01-19T10:20:27.445Z,2.41
2018-01-19T10:21:32.147Z,2.09
2018-01-19T10:22:37.093Z,1.81
2018-01-19T10:23:41.778Z,1.81
2018-01-19T10:24:46.466Z,1.76
2018-01-19T10:25:51.591Z,1.86
2018-01-19T10:26:56.252Z,1.93
2018-01-19T10:28:00.960Z,1.91
2018-01-19T10:29:05.603Z,1.93
2018-01-19T10:30:11.699Z,1.90
2018-01-19T10:31:16.351Z,1.95
2018-01-19T10:32:21.506Z,1.75
2018-01-19T10:33:26.149Z,1.71
2018-01-19T10:34:30.924Z,1.75
2018-01-19T10:35:35.574Z,1.75
2018-01-19T10:36:40.287Z,1.74
2018-01-19T10:37:44.918Z,1.70
2018-01-19T10:38:51.266Z,1.68
2018-01-19T10:39:55.988Z,1.65
2018-01-19T10:41:00.641Z,1.63
2018-01-19T10:42:05.269Z,1.58
2018-01-19T10:43:09.939Z,1.59
2018-01-19T10:44:14.685Z,1.58
2018-01-19T10:45:19.724Z,1.61
2018-01-19T10:46:24.443Z,1.62
2018-01-19T10:47:29.149Z,1.58
2018-01-19T10:48:33.872Z,1.65
2018-01-19T10:49:38.532Z,1.58
2018-01-19T10:50:43.225Z,1.52
2018-01-19T10:51:48.331Z,1.54
2018-01-19T10:52:53.073Z,1.56
2018-01-19T10:53:57.690Z,1.56
2018-01-19T10:55:02.467Z,1.62
2018-01-19T10:56:07.276Z,1.65
2018-01-19T10:57:12.929Z,1.73
2018-01-19T10:58:17.939Z,1.85
2018-01-19T10:59:22.744Z,1.75
2018-01-19T11:00:27.579Z,1.69
2018-01-19T11:01:32.349Z,1.69
2018-01-19T11:02:37.146Z,1.72
2018-01-19T11:03:42.997Z,1.75
2018-01-19T11:04:48.078Z,1.80
2018-01-19T11:05:52.827Z,1.88
2018-01-19T11:06:57.476Z,1.91
2018-01-19T11:08:02.177Z,1.82
2018-01-19T11:09:06.818Z,1.84
2018-01-19T11:10:11.540Z,1.92
2018-01-19T11:11:16.599Z,1.87
2018-01-19T11:12:21.322Z,1.90
2018-01-19T11:13:25.992Z,1.89
2018-01-19T11:14:30.680Z,1.89
2018-01-19T11:15:35.417Z,1.82
2018-01-19T11:16:40.016Z,1.89
2018-01-19T11:17:45.039Z,1.93
2018-01-19T11:18:49.692Z,1.97
2018-01-19T11:19:54.411Z,2.02
2018-01-19T11:20:59.093Z,1.96
2018-01-19T11:22:03.684Z,1.90
2018-01-19T11:23:08.587Z,1.97
2018-01-19T11:24:13.520Z,1.86
2018-01-19T11:25:18.199Z,1.92
2018-01-19T11:26:23.246Z,1.90
2018-01-19T11:27:28.842Z,1.92
2018-01-19T11:28:33.477Z,1.87
2018-01-19T11:29:38.261Z,1.95
2018-01-19T11:30:42.988Z,1.99
2018-01-19T11:31:47.623Z,1.97
2018-01-19T11:32:52.436Z,2.07
2018-01-19T11:33:57.206Z,2.17
2018-01-19T11:35:02.158Z,2.11
2018-01-19T11:36:06.773Z,2.21
2018-01-19T11:37:11.832Z,2.28
2018-01-19T11:38:16.577Z,2.31
2018-01-19T11:39:21.265Z,2.36
2018-01-19T11:40:26.024Z,2.25
2018-01-19T11:41:31.034Z,2.34
2018-01-19T11:42:36.154Z,2.38
2018-01-19T11:43:41.248Z,2.21
2018-01-19T11:44:45.946Z,2.20
2018-01-19T11:45:50.678Z,2.20
2018-01-19T11:46:55.467Z,2.26
2018-01-19T11:48:00.168Z,2.30
2018-01-19T11:49:05.044Z,2.35
2018-01-19T11:50:10.004Z,2.42
2018-01-19T11:51:14.580Z,2.54
2018-01-19T11:52:19.333Z,2.50
2018-01-19T11:53:24.095Z,2.54
2018-01-19T11:54:28.883Z,2.56
2018-01-19T11:55:34.330Z,2.56
2018-01-19T11:56:40.872Z,2.59
2018-01-19T11:57:45.918Z,2.54
2018-01-19T11:58:51.444Z,2.50
2018-01-19T11:59:56.397Z,2.49
2018-01-19T12:01:01.359Z,2.45
2018-01-19T12:02:06.571Z,2.48
2018-01-19T12:03:12.511Z,2.45
2018-01-19T12:04:17.820Z,2.35
2018-01-19T12:05:24.341Z,2.37
2018-01-19T12:06:31.134Z,2.33
2018-01-19T12:07:37.479Z,2.26
2018-01-19T12:08:44.940Z,2.16
2018-01-19T12:09:52.808Z,2.16
2018-01-19T12:10:59.692Z,2.11
2018-01-19T12:12:04.401Z,2.12
2018-01-19T12:13:10.024Z,2.16
2018-01-19T12:14:15.889Z,2.20
2018-01-19T12:15:20.898Z,2.08
2018-01-19T12:16:27.446Z,2.06
2018-01-19T12:17:32.910Z,2.04
2018-01-19T12:18:40.278Z,1.99
2018-01-19T12:19:46.894Z,1.98
2018-01-19T12:20:53.556Z,1.88
2018-01-19T12:22:03.570Z,1.82
2018-01-19T12:23:11.235Z,1.92
2018-01-19T12:24:17.579Z,1.99
2018-01-19T12:25:23.681Z,2.04
2018-01-19T12:26:30.979Z,2.11
2018-01-19T12:27:37.784Z,2.07
2018-01-19T12:28:46.910Z,2.14
2018-01-19T12:29:56.905Z,2.20
2018-01-19T12:31:05.086Z,2.32
2018-01-19T12:32:12.346Z,2.59
2018-01-19T12:33:19.308Z,2.87
2018-01-19T12:34:24.474Z,3.12
2018-01-19T12:35:31.545Z,3.06
2018-01-19T12:36:39.025Z,3.07
2018-01-19T12:37:45.802Z,3.05
2018-01-19T12:38:52.523Z,2.98
2018-01-19T12:39:59.189Z,2.72
2018-01-19T12:41:04.966Z,2.49
2018-01-19T12:42:12.013Z,2.32
2018-01-19T12:43:18.680Z,2.34
2018-01-19T12:44:23.728Z,2.35
2018-01-19T12:45:30.123Z,2.42
2018-01-19T12:46:35.354Z,2.28
2018-01-19T12:47:40.971Z,2.31
2018-01-19T12:48:47.595Z,2.43
2018-01-19T12:49:54.574Z,2.44
2018-01-19T12:51:00.634Z,2.34
2018-01-19T12:52:06.482Z,2.16
2018-01-19T12:53:14.614Z,2.11
2018-01-19T12:54:20.338Z,2.04
2018-01-19T12:55:25.686Z,2.00
2018-01-19T12:56:31.145Z,2.04
2018-01-19T12:57:37.979Z,1.99
2018-01-19T12:58:44.768Z,1.93
2018-01-19T12:59:52.479Z,1.91
2018-01-19T13:01:00.414Z,1.81
2018-01-19T13:02:09.575Z,1.73
2018-01-19T13:03:16.360Z,1.43
2018-01-19T13:04:24.366Z,1.38
2018-01-19T13:05:30.861Z,1.31
2018-01-19T13:06:36.671Z,1.34
2018-01-19T13:07:43.757Z,1.38
2018-01-19T13:08:51.955Z,1.40
2018-01-19T13:10:04.810Z,1.43
2018-01-19T13:11:13.462Z,1.46
2018-01-19T13:12:21.263Z,1.63
2018-01-19T13:13:30.869Z,1.56
2018-01-19T13:14:39.811Z,1.56
2018-01-19T13:15:51.050Z,1.63
2018-01-19T13:17:00.029Z,1.70
2018-01-19T13:31:12.230Z,1.73
2018-01-19T13:32:19.785Z,1.79
2018-01-19T13:33:27.759Z,1.78
2018-01-19T13:34:35.073Z,1.83
2018-01-19T13:35:42.394Z,1.84
2018-01-19T13:36:48.483Z,1.80
2018-01-19T13:37:57.606Z,1.84
2018-01-19T13:39:05.338Z,1.92
2018-01-19T13:40:14.051Z,1.99
2018-01-19T13:41:22.679Z,2.01
2018-01-19T13:42:30.124Z,2.35
2018-01-19T13:43:38.016Z,2.28
2018-01-19T13:44:45.524Z,2.17
2018-01-19T13:45:52.058Z,2.22
2018-01-19T13:46:59.367Z,2.27
2018-01-19T13:48:07.513Z,2.30
2018-01-19T13:49:17.482Z,2.34
2018-01-19T13:50:25.780Z,2.54
2018-01-19T13:51:34.418Z,3.01
2018-01-19T13:52:41.917Z,3.21
2018-01-19T13:53:49.728Z,3.21
2018-01-19T13:54:57.246Z,3.04
2018-01-19T13:56:04.984Z,2.82
2018-01-19T13:57:13.662Z,2.87
2018-01-19T13:58:23.233Z,2.78
2018-01-19T13:59:30.853Z,2.76
2018-01-19T14:00:38.598Z,2.69
2018-01-19T14:01:48.887Z,2.62
2018-01-19T14:02:55.722Z,2.67
2018-01-19T14:04:02.545Z,2.65
2018-01-19T14:05:10.319Z,2.72
2018-01-19T14:06:18.159Z,2.76
2018-01-19T14:07:26.070Z,2.75
2018-01-19T14:08:35.521Z,2.71
2018-01-19T14:09:43.552Z,2.62
2018-01-19T14:10:51.658Z,2.60
2018-01-19T14:11:59.056Z,2.64
2018-01-19T14:13:05.348Z,2.60
2018-01-19T14:14:12.663Z,2.59
2018-01-19T14:15:20.066Z,2.59
2018-01-19T14:16:27.932Z,2.59
2018-01-19T14:17:36.014Z,2.60
2018-01-19T14:18:44.376Z,2.57
2018-01-19T14:19:52.223Z,2.58
2018-01-19T14:21:00.232Z,2.51
2018-01-19T14:22:07.619Z,2.53
2018-01-19T14:23:15.659Z,2.55
2018-01-19T14:24:25.447Z,2.61
2018-01-19T14:25:33.795Z,2.62
2018-01-19T14:26:41.907Z,2.60
2018-01-19T14:27:51.220Z,2.49
2018-01-19T14:29:01.532Z,2.54
2018-01-19T14:30:07.822Z,2.54
2018-01-19T14:31:15.686Z,2.50
2018-01-19T14:32:23.711Z,2.48
2018-01-19T14:33:31.532Z,2.47
2018-01-19T14:34:39.875Z,2.44
2018-01-19T14:35:48.760Z,2.47
2018-01-19T14:36:57.882Z,2.44
2018-01-19T14:38:05.605Z,2.49
2018-01-19T14:39:12.611Z,2.55
2018-01-19T14:40:20.655Z,2.54
2018-01-19T14:41:29.565Z,2.55
2018-01-19T14:42:40.083Z,2.53
2018-01-19T14:43:49.073Z,2.53
2018-01-19T14:44:57.446Z,2.57
2018-01-19T14:46:08.449Z,2.52
2018-01-19T14:47:15.550Z,2.53
2018-01-19T14:48:24.885Z,2.56
2018-01-19T14:49:33.815Z,2.58
2018-01-19T14:50:41.947Z,2.54
2018-01-19T14:51:52.035Z,2.48
2018-01-19T14:53:00.148Z,2.42
2018-01-19T14:54:11.168Z,2.50
2018-01-19T14:55:18.079Z,2.52
2018-01-19T14:56:25.434Z,2.49
2018-01-19T14:57:33.378Z,2.53
2018-01-19T14:58:44.366Z,2.57
2018-01-19T14:59:55.442Z,2.58
2018-01-19T15:01:03.884Z,2.49
2018-01-19T15:02:13.905Z,2.38
2018-01-19T15:03:22.732Z,2.47
2018-01-19T15:04:37.484Z,2.49
2018-01-19T15:05:46.285Z,2.52
2018-01-19T15:06:57.748Z,2.52
2018-01-19T15:08:12.916Z,2.49
2018-01-19T15:09:27.207Z,2.45
2018-01-19T15:10:36.804Z,2.46
2018-01-19T15:11:47.183Z,2.43
2018-01-19T15:12:56.474Z,2.36
2018-01-19T15:14:09.523Z,2.34
2018-01-19T15:15:19.134Z,2.34
2018-01-19T15:16:27.049Z,2.34
2018-01-19T15:17:36.275Z,2.33
2018-01-19T15:18:47.417Z,2.32
2018-01-19T15:19:57.670Z,2.30
2018-01-19T15:21:07.646Z,2.29
2018-01-19T15:22:16.113Z,2.26
2018-01-19T15:23:24.596Z,2.28
2018-01-19T15:24:33.156Z,2.26
2018-01-19T15:25:43.335Z,2.24
2018-01-19T15:26:52.895Z,2.31
2018-01-19T15:28:06.922Z,2.35
2018-01-19T15:29:15.683Z,2.32
2018-01-19T15:30:29.010Z,2.31
2018-01-19T15:31:37.622Z,2.35
2018-01-19T15:32:47.538Z,2.28
2018-01-19T15:33:59.776Z,2.28